createdAt,value
2022-10-19T00:03:22.404Z,6.32
2022-10-19T00:08:31.421Z,7.07
2022-10-19T00:13:37.040Z,6.03
2022-10-19T00:18:44.065Z,5.80
2022-10-19T00:24:01.092Z,6.22
2022-10-19T00:29:07.264Z,7.40
2022-10-19T00:34:12.844Z,6.78
2022-10-19T00:39:21.993Z,6.97
2022-10-19T00:44:57.107Z,7.00
2022-10-19T00:50:05.366Z,6.78
2022-10-19T00:55:14.616Z,6.93
2022-10-19T01:00:20.514Z,7.28
2022-10-19T01:05:25.902Z,7.20
2022-10-19T01:10:41.039Z,7.40
2022-10-19T01:21:21.360Z,7.68
2022-10-19T01:27:10.889Z,8.98
2022-10-19T01:32:24.242Z,8.95
2022-10-19T01:37:37.054Z,9.52
2022-10-19T01:42:48.132Z,11.00
2022-10-19T01:47:59.134Z,11.13
2022-10-19T01:53:08.761Z,9.95
2022-10-19T01:58:16.821Z,9.40
2022-10-19T02:03:26.046Z,9.68
2022-10-19T02:08:34.880Z,9.32
2022-10-19T02:13:41.474Z,9.18
2022-10-19T02:19:02.770Z,9.93
2022-10-19T02:24:08.797Z,9.60
2022-10-19T02:29:15.290Z,8.98
2022-10-19T02:34:23.420Z,9.18
2022-10-19T02:39:29.016Z,9.98
2022-10-19T02:44:39.652Z,9.82
2022-10-19T02:49:48.280Z,8.85
2022-10-19T02:54:53.532Z,9.15
2022-10-19T03:00:00.839Z,9.95
2022-10-19T03:05:09.585Z,9.20
2022-10-19T03:10:14.932Z,9.77
2022-10-19T03:15:21.041Z,10.93
2022-10-19T03:20:29.041Z,9.88
2022-10-19T03:25:34.310Z,9.60
2022-10-19T03:30:39.760Z,10.00
2022-10-19T03:35:47.704Z,10.25
2022-10-19T03:40:53.032Z,11.13
2022-10-19T03:45:58.384Z,9.52
2022-10-19T03:51:08.878Z,11.32
2022-10-19T03:56:17.002Z,11.05
2022-10-19T04:01:23.518Z,12.32
2022-10-19T04:06:32.882Z,9.93
2022-10-19T04:11:39.231Z,11.23
2022-10-19T04:16:44.675Z,10.95
2022-10-19T04:21:52.897Z,11.65
2022-10-19T04:27:08.390Z,11.40
2022-10-19T04:32:13.960Z,11.73
2022-10-19T04:37:24.458Z,12.77
2022-10-19T04:42:29.655Z,12.02
2022-10-19T04:47:35.181Z,13.73
2022-10-19T04:52:43.459Z,13.55
2022-10-19T04:57:48.717Z,12.85
2022-10-19T05:02:53.927Z,11.73
2022-10-19T05:08:01.785Z,12.55
2022-10-19T05:13:07.022Z,11.70
2022-10-19T05:18:12.334Z,14.45
2022-10-19T05:23:20.449Z,13.32
2022-10-19T05:28:25.859Z,15.18
2022-10-19T05:33:31.176Z,19.20
2022-10-19T05:38:38.944Z,16.42
2022-10-19T05:43:44.816Z,17.63
2022-10-19T05:48:51.051Z,25.55
2022-10-19T05:54:00.107Z,19.98
2022-10-19T05:59:06.791Z,21.10
2022-10-19T06:04:14.233Z,23.55
2022-10-19T06:09:22.407Z,23.15
2022-10-19T06:14:27.675Z,22.98
2022-10-19T06:20:21.324Z,23.67
2022-10-19T06:25:29.211Z,23.38
2022-10-19T06:30:34.494Z,23.92
2022-10-19T06:35:42.510Z,23.88
2022-10-19T06:40:50.444Z,22.80
2022-10-19T06:45:55.858Z,22.25
2022-10-19T06:51:01.233Z,23.05
2022-10-19T06:56:10.391Z,23.33
2022-10-19T07:01:15.957Z,24.27
2022-10-19T07:06:21.487Z,22.88
2022-10-19T07:11:29.504Z,19.85
2022-10-19T07:23:13.236Z,18.88
2022-10-19T07:28:57.250Z,20.58
2022-10-19T07:34:25.430Z,18.38
2022-10-19T07:39:33.598Z,19.75
2022-10-19T07:44:38.772Z,17.40
2022-10-19T07:49:46.580Z,17.92
2022-10-19T07:54:52.840Z,18.15
2022-10-19T07:59:58.121Z,17.13
2022-10-19T08:05:08.037Z,18.92
2022-10-19T08:10:17.071Z,16.15
2022-10-19T08:15:22.380Z,16.05
2022-10-19T08:20:30.442Z,13.68
2022-10-19T08:25:35.724Z,14.20
2022-10-19T08:30:41.000Z,14.98
2022-10-19T08:35:48.940Z,14.82
2022-10-19T08:40:54.168Z,12.80
2022-10-19T08:46:04.475Z,13.63
2022-10-19T08:51:13.296Z,12.35
2022-10-19T08:56:45.987Z,12.60
2022-10-19T09:07:07.018Z,10.80
2022-10-19T09:12:16.319Z,11.07
2022-10-19T09:17:21.559Z,10.63
2022-10-19T09:22:33.190Z,8.85
2022-10-19T09:27:41.816Z,9.00
2022-10-19T09:32:47.043Z,8.33
2022-10-19T09:37:56.109Z,9.88
2022-10-19T09:43:09.090Z,9.70
2022-10-19T09:48:21.623Z,9.95
2022-10-19T09:53:30.183Z,9.77
2022-10-19T09:58:35.487Z,10.27
2022-10-19T10:55:30.330Z,10.30
2022-10-19T11:00:39.070Z,10.18
2022-10-19T11:05:45.662Z,11.40
2022-10-19T11:10:59.965Z,13.23
2022-10-19T11:16:09.634Z,14.15
2022-10-19T11:21:18.152Z,12.48
2022-10-19T11:26:49.928Z,11.40
2022-10-19T11:31:57.043Z,12.00
2022-10-19T11:37:06.015Z,11.88
2022-10-19T11:42:19.783Z,13.48
2022-10-19T11:47:36.586Z,11.50
2022-10-19T11:52:47.982Z,11.63
2022-10-19T11:58:00.308Z,12.80
2022-10-19T12:03:22.889Z,11.50
2022-10-19T12:08:37.955Z,13.00
2022-10-19T12:13:47.620Z,13.57
2022-10-19T12:18:54.966Z,13.98
2022-10-19T12:24:00.838Z,14.45
2022-10-19T12:29:13.106Z,13.63
2022-10-19T12:34:26.615Z,12.95
2022-10-19T12:39:37.372Z,13.88
2022-10-19T12:45:15.735Z,13.52
2022-10-19T12:50:57.377Z,12.93
2022-10-19T12:56:10.390Z,13.98
2022-10-19T13:01:24.110Z,13.55
2022-10-19T13:06:45.240Z,13.60
2022-10-19T13:12:22.013Z,13.30
2022-10-19T13:17:51.330Z,12.38
2022-10-19T13:23:31.488Z,13.20
2022-10-19T13:28:46.076Z,11.80
2022-10-19T13:33:55.464Z,10.68
2022-10-19T13:39:17.683Z,12.43
2022-10-19T13:44:25.679Z,13.45
2022-10-19T13:49:43.593Z,23.13
2022-10-19T13:55:11.916Z,11.68
2022-10-19T14:00:21.122Z,18.65
2022-10-19T14:05:53.871Z,10.90
2022-10-19T14:11:03.594Z,9.95
2022-10-19T14:16:10.540Z,7.03
2022-10-19T14:21:18.457Z,6.47
2022-10-19T14:26:25.651Z,5.95
2022-10-19T14:31:38.357Z,9.57
2022-10-19T14:36:48.255Z,29.20
2022-10-19T14:41:58.520Z,8.55
2022-10-19T14:47:05.773Z,6.38
2022-10-19T14:52:17.674Z,6.50
2022-10-19T14:57:27.767Z,9.50
2022-10-19T15:02:36.678Z,9.27
2022-10-19T15:07:47.698Z,13.43
2022-10-19T15:12:53.465Z,6.55
2022-10-19T15:18:00.036Z,6.68
2022-10-19T15:23:36.817Z,17.90
2022-10-19T15:28:42.481Z,8.57
2022-10-19T15:33:53.477Z,6.57
2022-10-19T15:39:17.956Z,5.93
2022-10-19T15:44:36.332Z,6.32
2022-10-19T15:50:05.184Z,5.60
2022-10-19T15:55:17.584Z,6.05
2022-10-19T16:00:23.470Z,6.60
2022-10-19T16:05:28.911Z,6.30
2022-10-19T16:10:36.643Z,6.93
2022-10-19T16:15:41.677Z,7.63
2022-10-19T16:20:46.787Z,7.40
2022-10-19T16:25:54.991Z,8.50
2022-10-19T16:31:00.096Z,9.35
2022-10-19T16:36:07.767Z,12.57
2022-10-19T16:41:15.744Z,12.02
2022-10-19T16:46:24.728Z,10.27
2022-10-19T16:51:32.344Z,8.65
2022-10-19T16:56:40.625Z,11.57
2022-10-19T17:01:47.039Z,13.07
2022-10-19T17:06:52.355Z,10.05
2022-10-19T17:12:01.204Z,8.63
2022-10-19T17:17:08.362Z,8.70
2022-10-19T17:22:16.375Z,7.00
2022-10-19T17:32:35.023Z,6.80
2022-10-19T17:37:41.648Z,7.93
2022-10-19T17:42:51.516Z,9.45
2022-10-19T17:47:56.589Z,9.07
2022-10-19T17:53:04.469Z,7.60
2022-10-19T17:58:12.218Z,8.45
2022-10-19T18:03:17.385Z,13.25
2022-10-19T18:08:24.903Z,11.88
2022-10-19T18:13:32.911Z,11.60
2022-10-19T18:18:39.647Z,11.75
2022-10-19T18:23:44.890Z,10.50
2022-10-19T18:28:53.359Z,11.75
2022-10-19T18:33:59.805Z,13.10
2022-10-19T18:39:08.090Z,10.50
2022-10-19T18:44:18.357Z,10.25
2022-10-19T18:49:25.046Z,7.97
2022-10-19T18:54:30.236Z,7.93
2022-10-19T18:59:38.300Z,6.82
2022-10-19T19:04:43.352Z,6.95
2022-10-19T19:09:48.436Z,6.22
2022-10-19T19:14:56.248Z,7.18
2022-10-19T19:20:01.470Z,6.35
2022-10-19T19:25:07.018Z,7.25
2022-10-19T19:30:15.367Z,7.07
2022-10-19T19:35:20.604Z,9.52
2022-10-19T19:40:25.723Z,6.15
2022-10-19T19:45:34.024Z,6.97
2022-10-19T19:50:40.263Z,6.15
2022-10-19T19:55:45.400Z,6.55
2022-10-19T20:00:53.333Z,5.80
2022-10-19T20:05:58.516Z,6.03
2022-10-19T20:11:06.376Z,5.35
2022-10-19T20:16:15.770Z,5.82
2022-10-19T20:21:24.071Z,6.20
2022-10-19T20:26:29.530Z,5.68
2022-10-19T20:31:39.826Z,5.22
2022-10-19T20:36:45.560Z,6.13
2022-10-19T20:41:50.654Z,5.68
2022-10-19T20:46:58.331Z,5.70
2022-10-19T20:52:03.374Z,6.13
2022-10-19T20:57:08.510Z,5.53
2022-10-19T21:02:26.091Z,6.10
2022-10-19T21:07:31.231Z,6.97
2022-10-19T21:12:39.298Z,7.82
2022-10-19T21:17:50.396Z,7.40
2022-10-19T21:22:55.488Z,6.40
2022-10-19T21:28:00.658Z,6.47
2022-10-19T21:33:08.298Z,7.88
2022-10-19T21:38:13.326Z,8.05
2022-10-19T21:43:18.492Z,7.80
2022-10-19T21:48:26.826Z,6.15
2022-10-19T21:53:31.830Z,6.28
2022-10-19T21:58:36.939Z,6.30
2022-10-19T22:03:44.774Z,6.97
2022-10-19T22:08:50.308Z,6.28
2022-10-19T22:13:57.745Z,6.20
2022-10-19T22:19:08.299Z,6.10
2022-10-19T22:24:15.936Z,6.72
2022-10-19T22:29:22.063Z,6.55
2022-10-19T22:34:29.772Z,7.22
2022-10-19T22:39:35.005Z,7.03
2022-10-19T22:44:43.221Z,7.20
2022-10-19T22:49:51.066Z,6.63
2022-10-19T22:54:56.649Z,6.55
2022-10-19T23:00:01.673Z,6.55
2022-10-19T23:05:10.229Z,6.97
2022-10-19T23:10:15.402Z,7.75
2022-10-19T23:15:23.938Z,8.18
2022-10-19T23:20:31.831Z,8.25
2022-10-19T23:25:36.999Z,7.30
2022-10-19T23:30:42.197Z,7.28
2022-10-19T23:35:50.109Z,8.43
2022-10-19T23:40:55.354Z,7.13
2022-10-19T23:46:00.576Z,6.82
2022-10-19T23:51:10.301Z,6.03
2022-10-19T23:56:17.195Z,6.13
